GEC8262 SBKP-SCEL
Flight info
| Callsign | GEC8262 |
|---|---|
| Flight time | 3h 19m |
| Altitude | 32000 |
| Route | ASETA UL310 LUTNU/N0484F340 UL310 ARULA UM400 CBA UZ105 UMKAL UMKAL7C |
| Aircraft | B77L/H-SDE1E2E3FGHIJ2J3J4J5M1RWXY/LB1D1 |
Departure
| Time | 2026-04-30 17:44 |
|---|---|
| Airport | Viracopos International Airport (SBKP) |
Arrival
| Time | 2026-04-30 21:03 |
|---|---|
| Airport | Comodoro Arturo Merino Benítez International Airport (SCEL) |
| Time | Latitude | Longitude | Altitude | Speed | Heading |
|---|---|---|---|---|---|
| 2026-04-30 17:39 | -23.00388 | -47.14419 | 2146 ft | 0 kts | 308° |
| 2026-04-30 17:41 | -23.00136 | -47.14769 | 2150 ft | 12 kts | 311° |
| 2026-04-30 17:42 | -22.99974 | -47.14794 | 2148 ft | 12 kts | 19° |
| 2026-04-30 17:42 | -22.99890 | -47.14715 | 2148 ft | 17 kts | 55° |
| 2026-04-30 17:43 | -23.00164 | -47.14256 | 2149 ft | 91 kts | 129° |
| 2026-04-30 17:44 | -23.02239 | -47.11365 | 2903 ft | 187 kts | 131° |
| 2026-04-30 17:44 | -23.05688 | -47.10896 | 4071 ft | 209 kts | 208° |
| 2026-04-30 17:46 | -23.10390 | -47.17839 | 6296 ft | 270 kts | 262° |
| 2026-04-30 17:47 | -23.11685 | -47.26057 | 9209 ft | 282 kts | 258° |
| 2026-04-30 17:48 | -23.14839 | -47.34275 | 10703 ft | 334 kts | 244° |
| 2026-04-30 17:48 | -23.18021 | -47.41753 | 12001 ft | 378 kts | 245° |
| 2026-04-30 17:49 | -23.22430 | -47.52438 | 14835 ft | 398 kts | 245° |
| 2026-04-30 17:50 | -23.27047 | -47.63586 | 17483 ft | 413 kts | 246° |
| 2026-04-30 17:51 | -23.30623 | -47.72238 | 19305 ft | 421 kts | 247° |
| 2026-04-30 17:52 | -23.34237 | -47.81004 | 21102 ft | 427 kts | 247° |
| 2026-04-30 17:53 | -23.39962 | -47.94922 | 23667 ft | 437 kts | 248° |
| 2026-04-30 17:54 | -23.44955 | -48.07092 | 25504 ft | 443 kts | 248° |
| 2026-04-30 17:55 | -23.50017 | -48.19466 | 27191 ft | 451 kts | 248° |
| 2026-04-30 17:56 | -23.55441 | -48.31928 | 28841 ft | 462 kts | 240° |
| 2026-04-30 17:57 | -23.61063 | -48.40572 | 29967 ft | 468 kts | 237° |
| 2026-04-30 17:58 | -23.66590 | -48.49262 | 31419 ft | 460 kts | 239° |
| 2026-04-30 17:59 | -23.73625 | -48.60782 | 33193 ft | 453 kts | 239° |
| 2026-04-30 18:00 | -23.80598 | -48.72237 | 34074 ft | 459 kts | 239° |
| 2026-04-30 18:01 | -23.89506 | -48.86888 | 34057 ft | 467 kts | 239° |
| 2026-04-30 18:02 | -24.00272 | -49.04648 | 34045 ft | 466 kts | 239° |
| 2026-04-30 18:04 | -24.10936 | -49.22308 | 34054 ft | 462 kts | 240° |
| 2026-04-30 18:06 | -24.25049 | -49.45777 | 34063 ft | 461 kts | 240° |
| 2026-04-30 18:08 | -24.37427 | -49.66306 | 34061 ft | 461 kts | 239° |
| 2026-04-30 18:10 | -24.52043 | -49.89423 | 34077 ft | 463 kts | 234° |
| 2026-04-30 18:11 | -24.66000 | -50.08778 | 34078 ft | 462 kts | 235° |
| 2026-04-30 18:13 | -24.75968 | -50.22644 | 34096 ft | 462 kts | 235° |
| 2026-04-30 18:14 | -24.85912 | -50.36539 | 34071 ft | 461 kts | 236° |
| 2026-04-30 18:15 | -24.97751 | -50.53131 | 34077 ft | 460 kts | 236° |
| 2026-04-30 18:16 | -25.05643 | -50.64223 | 34075 ft | 460 kts | 236° |
| 2026-04-30 18:17 | -25.09586 | -50.69773 | 34075 ft | 459 kts | 236° |
| 2026-04-30 18:18 | -25.15488 | -50.78096 | 34075 ft | 459 kts | 236° |
| 2026-04-30 18:18 | -25.19422 | -50.83652 | 34078 ft | 459 kts | 236° |
| 2026-04-30 18:19 | -25.23352 | -50.89210 | 34088 ft | 459 kts | 236° |
| 2026-04-30 18:19 | -25.27278 | -50.94767 | 34085 ft | 459 kts | 236° |
| 2026-04-30 18:20 | -25.31197 | -51.00321 | 34076 ft | 458 kts | 236° |
| 2026-04-30 18:20 | -25.35114 | -51.05878 | 34079 ft | 458 kts | 236° |
| 2026-04-30 18:21 | -25.39029 | -51.11437 | 34081 ft | 458 kts | 236° |
| 2026-04-30 18:21 | -25.42942 | -51.17002 | 34081 ft | 458 kts | 236° |
| 2026-04-30 18:22 | -25.46824 | -51.22530 | 34073 ft | 458 kts | 236° |
| 2026-04-30 18:22 | -25.52710 | -51.30926 | 34075 ft | 458 kts | 236° |
| 2026-04-30 18:23 | -25.56616 | -51.36504 | 34082 ft | 458 kts | 236° |
| 2026-04-30 18:23 | -25.60496 | -51.42062 | 34076 ft | 459 kts | 236° |
| 2026-04-30 18:24 | -25.66306 | -51.50470 | 34088 ft | 458 kts | 237° |
| 2026-04-30 18:25 | -25.70172 | -51.56077 | 34082 ft | 457 kts | 237° |
| 2026-04-30 18:25 | -25.75959 | -51.64472 | 34076 ft | 456 kts | 237° |
| 2026-04-30 18:26 | -25.81723 | -51.72851 | 34075 ft | 455 kts | 237° |
| 2026-04-30 18:27 | -25.87476 | -51.81226 | 34080 ft | 454 kts | 237° |
| 2026-04-30 18:28 | -25.93220 | -51.89605 | 34073 ft | 455 kts | 237° |
| 2026-04-30 18:28 | -25.98967 | -51.98002 | 34069 ft | 455 kts | 237° |
| 2026-04-30 18:29 | -26.06625 | -52.09217 | 34077 ft | 455 kts | 237° |
| 2026-04-30 18:30 | -26.14271 | -52.20441 | 34072 ft | 454 kts | 238° |
| 2026-04-30 18:31 | -26.19946 | -52.28788 | 34054 ft | 452 kts | 238° |
| 2026-04-30 18:32 | -26.25625 | -52.37157 | 34082 ft | 453 kts | 238° |
| 2026-04-30 18:32 | -26.29427 | -52.42771 | 34600 ft | 451 kts | 238° |
| 2026-04-30 18:33 | -26.31309 | -52.45549 | 34999 ft | 448 kts | 238° |
| 2026-04-30 18:33 | -26.35048 | -52.51074 | 35587 ft | 445 kts | 238° |
| 2026-04-30 18:33 | -26.36910 | -52.53831 | 35840 ft | 445 kts | 239° |
| 2026-04-30 18:34 | -26.38772 | -52.56590 | 35969 ft | 446 kts | 239° |
| 2026-04-30 18:34 | -26.42497 | -52.62113 | 36062 ft | 444 kts | 239° |
| 2026-04-30 18:35 | -26.46196 | -52.67601 | 36053 ft | 441 kts | 239° |
| 2026-04-30 18:35 | -26.49866 | -52.73056 | 36050 ft | 439 kts | 239° |
| 2026-04-30 18:36 | -26.55348 | -52.81213 | 36046 ft | 436 kts | 239° |
| 2026-04-30 18:37 | -26.60808 | -52.89356 | 36041 ft | 437 kts | 239° |
| 2026-04-30 18:37 | -26.64453 | -52.94800 | 36038 ft | 438 kts | 239° |
| 2026-04-30 18:38 | -26.68113 | -53.00271 | 36037 ft | 440 kts | 239° |
| 2026-04-30 18:38 | -26.71779 | -53.05759 | 36041 ft | 441 kts | 239° |
| 2026-04-30 18:39 | -26.75444 | -53.11251 | 36039 ft | 441 kts | 239° |
| 2026-04-30 18:39 | -26.79124 | -53.16773 | 36030 ft | 442 kts | 239° |
| 2026-04-30 18:40 | -26.82801 | -53.22294 | 36030 ft | 443 kts | 239° |
| 2026-04-30 18:40 | -26.86781 | -53.27620 | 36041 ft | 447 kts | 236° |
| 2026-04-30 18:41 | -26.90881 | -53.32849 | 36033 ft | 446 kts | 236° |
| 2026-04-30 18:41 | -26.94959 | -53.38088 | 36052 ft | 446 kts | 236° |
| 2026-04-30 18:42 | -26.98999 | -53.43310 | 36037 ft | 446 kts | 236° |
| 2026-04-30 18:42 | -27.04412 | -53.50351 | 36023 ft | 445 kts | 236° |
| 2026-04-30 18:45 | -27.26493 | -53.79484 | 36027 ft | 446 kts | 237° |
| 2026-04-30 18:46 | -27.30511 | -53.84798 | 36020 ft | 446 kts | 237° |
| 2026-04-30 18:46 | -27.34531 | -53.90120 | 36047 ft | 446 kts | 237° |
| 2026-04-30 18:47 | -27.38548 | -53.95451 | 36033 ft | 447 kts | 237° |
| 2026-04-30 18:47 | -27.42561 | -54.00782 | 36041 ft | 446 kts | 237° |
| 2026-04-30 18:48 | -27.46572 | -54.06116 | 36015 ft | 445 kts | 237° |
| 2026-04-30 18:48 | -27.50567 | -54.11436 | 36036 ft | 445 kts | 237° |
| 2026-04-30 18:49 | -27.54557 | -54.16757 | 36020 ft | 444 kts | 237° |
| 2026-04-30 18:49 | -27.58546 | -54.22082 | 36018 ft | 444 kts | 237° |
| 2026-04-30 18:50 | -27.62448 | -54.27462 | 36023 ft | 440 kts | 241° |
| 2026-04-30 18:50 | -27.65848 | -54.33109 | 36024 ft | 438 kts | 243° |
| 2026-04-30 18:51 | -27.69253 | -54.38799 | 36021 ft | 438 kts | 242° |
| 2026-04-30 18:51 | -27.72671 | -54.44494 | 36021 ft | 438 kts | 242° |
| 2026-04-30 18:52 | -27.76091 | -54.50188 | 36032 ft | 438 kts | 242° |
| 2026-04-30 18:52 | -27.79514 | -54.55891 | 36028 ft | 439 kts | 242° |
| 2026-04-30 18:53 | -27.82930 | -54.61588 | 36003 ft | 438 kts | 243° |
| 2026-04-30 18:53 | -27.86339 | -54.67281 | 36020 ft | 437 kts | 243° |
| 2026-04-30 18:54 | -27.89742 | -54.72972 | 36007 ft | 436 kts | 243° |
| 2026-04-30 18:54 | -27.93135 | -54.78655 | 36014 ft | 436 kts | 243° |
| 2026-04-30 18:55 | -27.96525 | -54.84340 | 36005 ft | 436 kts | 243° |
| 2026-04-30 18:55 | -28.01610 | -54.92881 | 36004 ft | 436 kts | 243° |
| 2026-04-30 18:56 | -28.06684 | -55.01422 | 36018 ft | 436 kts | 243° |
| 2026-04-30 18:57 | -28.11736 | -55.09943 | 36007 ft | 437 kts | 243° |
| 2026-04-30 18:57 | -28.15125 | -55.15667 | 36006 ft | 437 kts | 243° |
| 2026-04-30 18:58 | -28.20197 | -55.24250 | 36001 ft | 437 kts | 243° |
| 2026-04-30 18:59 | -28.24374 | -55.33291 | 36000 ft | 430 kts | 250° |
| 2026-04-30 19:00 | -28.29698 | -55.45489 | 36007 ft | 432 kts | 249° |
| 2026-04-30 19:01 | -28.35168 | -55.57670 | 35995 ft | 433 kts | 249° |
| 2026-04-30 19:02 | -28.39228 | -55.66830 | 35993 ft | 433 kts | 250° |
| 2026-04-30 19:03 | -28.44586 | -55.79071 | 36003 ft | 433 kts | 250° |
| 2026-04-30 19:04 | -28.49950 | -55.91340 | 35987 ft | 433 kts | 250° |
| 2026-04-30 19:05 | -28.55302 | -56.03618 | 35987 ft | 433 kts | 250° |
| 2026-04-30 19:06 | -28.60627 | -56.15873 | 35989 ft | 433 kts | 250° |
| 2026-04-30 19:06 | -28.64625 | -56.25096 | 35987 ft | 433 kts | 250° |
| 2026-04-30 19:07 | -28.68614 | -56.34321 | 35989 ft | 433 kts | 250° |
| 2026-04-30 19:08 | -28.73928 | -56.46644 | 35982 ft | 433 kts | 250° |
| 2026-04-30 19:09 | -28.77908 | -56.55899 | 35981 ft | 433 kts | 250° |
| 2026-04-30 19:09 | -28.80558 | -56.62074 | 35986 ft | 434 kts | 250° |
| 2026-04-30 19:10 | -28.85862 | -56.74458 | 35980 ft | 435 kts | 250° |
| 2026-04-30 19:11 | -28.89837 | -56.83767 | 35975 ft | 435 kts | 250° |
| 2026-04-30 19:12 | -28.92486 | -56.89983 | 35973 ft | 436 kts | 250° |
| 2026-04-30 19:12 | -28.95135 | -56.96207 | 35970 ft | 436 kts | 250° |
| 2026-04-30 19:13 | -29.00433 | -57.08689 | 35977 ft | 437 kts | 250° |
| 2026-04-30 19:14 | -29.03063 | -57.14900 | 35982 ft | 438 kts | 250° |
| 2026-04-30 19:14 | -29.05731 | -57.21211 | 35974 ft | 438 kts | 250° |
| 2026-04-30 19:15 | -29.08363 | -57.27446 | 35976 ft | 439 kts | 250° |
| 2026-04-30 19:15 | -29.12334 | -57.36874 | 35975 ft | 438 kts | 250° |
| 2026-04-30 19:16 | -29.14978 | -57.43163 | 35983 ft | 439 kts | 250° |
| 2026-04-30 19:17 | -29.18942 | -57.52614 | 35970 ft | 440 kts | 250° |
| 2026-04-30 19:17 | -29.22905 | -57.62083 | 35966 ft | 440 kts | 250° |
| 2026-04-30 19:18 | -29.26861 | -57.71558 | 35973 ft | 440 kts | 250° |
| 2026-04-30 19:19 | -29.29499 | -57.77889 | 35967 ft | 441 kts | 250° |
| 2026-04-30 19:19 | -29.33455 | -57.87404 | 35964 ft | 441 kts | 250° |
| 2026-04-30 19:20 | -29.36069 | -57.93704 | 35978 ft | 441 kts | 250° |
| 2026-04-30 19:21 | -29.40018 | -58.03242 | 35969 ft | 442 kts | 250° |
| 2026-04-30 19:22 | -29.44661 | -58.16215 | 35966 ft | 438 kts | 255° |
| 2026-04-30 19:23 | -29.50999 | -58.35929 | 35962 ft | 439 kts | 255° |
| 2026-04-30 19:24 | -29.54174 | -58.45799 | 35960 ft | 440 kts | 255° |
| 2026-04-30 19:25 | -29.59459 | -58.62296 | 35954 ft | 440 kts | 255° |
| 2026-04-30 19:26 | -29.63659 | -58.75464 | 35940 ft | 440 kts | 255° |
| 2026-04-30 19:27 | -29.66811 | -58.85377 | 35937 ft | 440 kts | 255° |
| 2026-04-30 19:28 | -29.70023 | -58.95275 | 35954 ft | 441 kts | 254° |
| 2026-04-30 19:29 | -29.74418 | -59.08442 | 35940 ft | 441 kts | 254° |
| 2026-04-30 19:30 | -29.78778 | -59.21633 | 35938 ft | 441 kts | 255° |
| 2026-04-30 19:31 | -29.83126 | -59.34852 | 35947 ft | 442 kts | 255° |
| 2026-04-30 19:31 | -29.86018 | -59.43674 | 35941 ft | 442 kts | 255° |
| 2026-04-30 19:32 | -29.88189 | -59.50309 | 35947 ft | 443 kts | 255° |
| 2026-04-30 19:32 | -29.90359 | -59.56953 | 35938 ft | 443 kts | 255° |
| 2026-04-30 19:33 | -29.92524 | -59.63596 | 35938 ft | 443 kts | 255° |
| 2026-04-30 19:33 | -29.94689 | -59.70253 | 35932 ft | 443 kts | 255° |
| 2026-04-30 19:34 | -29.96849 | -59.76907 | 35934 ft | 443 kts | 255° |
| 2026-04-30 19:35 | -30.00078 | -59.86882 | 35925 ft | 443 kts | 255° |
| 2026-04-30 19:35 | -30.02234 | -59.93558 | 35928 ft | 443 kts | 255° |
| 2026-04-30 19:36 | -30.04382 | -60.00221 | 35934 ft | 444 kts | 255° |
| 2026-04-30 19:36 | -30.07606 | -60.10248 | 35930 ft | 444 kts | 255° |
| 2026-04-30 19:37 | -30.09751 | -60.16937 | 35928 ft | 444 kts | 255° |
| 2026-04-30 19:37 | -30.11894 | -60.23632 | 35929 ft | 445 kts | 255° |
| 2026-04-30 19:38 | -30.14036 | -60.30340 | 35926 ft | 445 kts | 255° |
| 2026-04-30 19:38 | -30.16176 | -60.37052 | 35927 ft | 445 kts | 255° |
| 2026-04-30 19:39 | -30.18301 | -60.43728 | 35922 ft | 446 kts | 255° |
| 2026-04-30 19:39 | -30.20436 | -60.50457 | 35930 ft | 446 kts | 255° |
| 2026-04-30 19:40 | -30.22570 | -60.57196 | 35919 ft | 447 kts | 255° |
| 2026-04-30 19:40 | -30.24704 | -60.63945 | 35915 ft | 447 kts | 255° |
| 2026-04-30 19:41 | -30.26831 | -60.70691 | 35917 ft | 447 kts | 255° |
| 2026-04-30 19:41 | -30.28957 | -60.77444 | 35922 ft | 447 kts | 255° |
| 2026-04-30 19:42 | -30.31080 | -60.84205 | 35914 ft | 447 kts | 255° |
| 2026-04-30 19:42 | -30.33199 | -60.90963 | 35914 ft | 447 kts | 255° |
| 2026-04-30 19:43 | -30.35314 | -60.97728 | 35914 ft | 447 kts | 256° |
| 2026-04-30 19:44 | -30.38482 | -61.07878 | 35918 ft | 447 kts | 256° |
| 2026-04-30 19:44 | -30.40596 | -61.14659 | 35910 ft | 448 kts | 256° |
| 2026-04-30 19:45 | -30.42710 | -61.21448 | 35906 ft | 448 kts | 256° |
| 2026-04-30 19:45 | -30.44817 | -61.28233 | 35906 ft | 448 kts | 256° |
| 2026-04-30 19:46 | -30.46923 | -61.35028 | 35918 ft | 448 kts | 256° |
| 2026-04-30 19:46 | -30.49028 | -61.41836 | 35906 ft | 448 kts | 256° |
| 2026-04-30 19:47 | -30.51128 | -61.48640 | 35902 ft | 448 kts | 256° |
| 2026-04-30 19:47 | -30.53231 | -61.55455 | 35900 ft | 448 kts | 256° |
| 2026-04-30 19:48 | -30.55338 | -61.62261 | 35899 ft | 448 kts | 256° |
| 2026-04-30 19:48 | -30.57437 | -61.69066 | 35890 ft | 448 kts | 256° |
| 2026-04-30 19:49 | -30.59504 | -61.75838 | 35893 ft | 448 kts | 256° |
| 2026-04-30 19:49 | -30.62612 | -61.86064 | 35896 ft | 448 kts | 256° |
| 2026-04-30 19:50 | -30.64680 | -61.92880 | 35904 ft | 448 kts | 256° |
| 2026-04-30 19:50 | -30.66746 | -61.99702 | 35898 ft | 448 kts | 256° |
| 2026-04-30 19:51 | -30.68810 | -62.06534 | 35892 ft | 448 kts | 256° |
| 2026-04-30 19:51 | -30.70872 | -62.13370 | 35885 ft | 448 kts | 256° |
| 2026-04-30 19:52 | -30.72929 | -62.20208 | 35889 ft | 448 kts | 256° |
| 2026-04-30 19:52 | -30.74983 | -62.27050 | 35887 ft | 448 kts | 256° |
| 2026-04-30 19:53 | -30.77034 | -62.33895 | 35891 ft | 448 kts | 256° |
| 2026-04-30 19:53 | -30.79083 | -62.40742 | 35895 ft | 448 kts | 256° |
| 2026-04-30 19:54 | -30.81139 | -62.47591 | 35893 ft | 448 kts | 256° |
| 2026-04-30 19:54 | -30.83192 | -62.54444 | 35905 ft | 449 kts | 256° |
| 2026-04-30 19:55 | -30.85242 | -62.61301 | 35894 ft | 449 kts | 256° |
| 2026-04-30 19:55 | -30.87290 | -62.68174 | 35896 ft | 449 kts | 256° |
| 2026-04-30 19:56 | -30.89319 | -62.74993 | 35899 ft | 450 kts | 256° |
| 2026-04-30 19:56 | -30.91378 | -62.81932 | 35898 ft | 450 kts | 256° |
| 2026-04-30 19:57 | -30.93417 | -62.88820 | 35905 ft | 450 kts | 256° |
| 2026-04-30 19:57 | -30.95459 | -62.95730 | 35901 ft | 451 kts | 256° |
| 2026-04-30 19:58 | -30.97482 | -63.02590 | 35899 ft | 451 kts | 256° |
| 2026-04-30 19:58 | -30.99516 | -63.09508 | 35900 ft | 451 kts | 256° |
| 2026-04-30 19:59 | -31.01545 | -63.16418 | 35904 ft | 451 kts | 256° |
| 2026-04-30 20:00 | -31.04577 | -63.26822 | 35898 ft | 452 kts | 256° |
| 2026-04-30 20:00 | -31.06586 | -63.33762 | 35902 ft | 452 kts | 256° |
| 2026-04-30 20:01 | -31.09593 | -63.44177 | 35912 ft | 452 kts | 256° |
| 2026-04-30 20:01 | -31.11598 | -63.51135 | 35899 ft | 453 kts | 256° |
| 2026-04-30 20:02 | -31.14600 | -63.61587 | 35893 ft | 453 kts | 256° |
| 2026-04-30 20:03 | -31.17595 | -63.72048 | 35902 ft | 453 kts | 256° |
| 2026-04-30 20:03 | -31.19589 | -63.79034 | 35904 ft | 453 kts | 256° |
| 2026-04-30 20:04 | -31.21578 | -63.86021 | 35893 ft | 454 kts | 256° |
| 2026-04-30 20:05 | -31.24558 | -63.96514 | 35890 ft | 454 kts | 256° |
| 2026-04-30 20:05 | -31.27528 | -64.07011 | 35895 ft | 454 kts | 256° |
| 2026-04-30 20:06 | -31.29492 | -64.13972 | 35886 ft | 454 kts | 256° |
| 2026-04-30 20:06 | -31.31512 | -64.21031 | 35886 ft | 455 kts | 254° |
| 2026-04-30 20:07 | -31.33911 | -64.27906 | 35855 ft | 457 kts | 252° |
| 2026-04-30 20:08 | -31.37595 | -64.38199 | 35875 ft | 458 kts | 252° |
| 2026-04-30 20:08 | -31.40017 | -64.45038 | 35889 ft | 458 kts | 252° |
| 2026-04-30 20:09 | -31.42450 | -64.51950 | 35892 ft | 459 kts | 252° |
| 2026-04-30 20:09 | -31.46094 | -64.62328 | 35908 ft | 459 kts | 252° |
| 2026-04-30 20:10 | -31.49729 | -64.72714 | 35899 ft | 459 kts | 252° |
| 2026-04-30 20:11 | -31.53351 | -64.83095 | 35888 ft | 458 kts | 252° |
| 2026-04-30 20:11 | -31.55624 | -64.90060 | 35893 ft | 456 kts | 255° |
| 2026-04-30 20:12 | -31.58675 | -65.00642 | 35896 ft | 458 kts | 255° |
| 2026-04-30 20:13 | -31.60759 | -65.07707 | 35872 ft | 458 kts | 255° |
| 2026-04-30 20:13 | -31.62858 | -65.14763 | 35863 ft | 458 kts | 255° |
| 2026-04-30 20:14 | -31.64949 | -65.21820 | 35865 ft | 458 kts | 255° |
| 2026-04-30 20:14 | -31.67037 | -65.28886 | 35834 ft | 459 kts | 255° |
| 2026-04-30 20:15 | -31.69122 | -65.35962 | 35845 ft | 459 kts | 255° |
| 2026-04-30 20:15 | -31.71191 | -65.42997 | 35826 ft | 459 kts | 255° |
| 2026-04-30 20:16 | -31.73268 | -65.50076 | 35812 ft | 459 kts | 255° |
| 2026-04-30 20:16 | -31.75341 | -65.57159 | 35813 ft | 458 kts | 255° |
| 2026-04-30 20:17 | -31.77409 | -65.64243 | 35814 ft | 459 kts | 255° |
| 2026-04-30 20:17 | -31.79478 | -65.71343 | 35808 ft | 459 kts | 255° |
| 2026-04-30 20:18 | -31.81542 | -65.78446 | 35801 ft | 460 kts | 255° |
| 2026-04-30 20:18 | -31.83606 | -65.85564 | 35796 ft | 460 kts | 255° |
| 2026-04-30 20:19 | -31.85315 | -65.91471 | 35796 ft | 459 kts | 255° |
| 2026-04-30 20:19 | -31.87720 | -65.99798 | 35792 ft | 460 kts | 255° |
| 2026-04-30 20:20 | -31.89772 | -66.06928 | 35794 ft | 460 kts | 255° |
| 2026-04-30 20:20 | -31.91475 | -66.12854 | 35788 ft | 460 kts | 255° |
| 2026-04-30 20:21 | -31.93519 | -66.19983 | 35791 ft | 460 kts | 255° |
| 2026-04-30 20:21 | -31.95560 | -66.27122 | 35791 ft | 460 kts | 255° |
| 2026-04-30 20:22 | -31.97597 | -66.34263 | 35782 ft | 460 kts | 255° |
| 2026-04-30 20:22 | -31.99631 | -66.41410 | 35773 ft | 460 kts | 255° |
| 2026-04-30 20:23 | -32.01664 | -66.48568 | 35774 ft | 461 kts | 255° |
| 2026-04-30 20:23 | -32.03691 | -66.55727 | 35763 ft | 461 kts | 255° |
| 2026-04-30 20:24 | -32.05716 | -66.62893 | 35760 ft | 461 kts | 255° |
| 2026-04-30 20:24 | -32.07740 | -66.70072 | 35758 ft | 461 kts | 255° |
| 2026-04-30 20:25 | -32.10769 | -66.80852 | 35752 ft | 462 kts | 255° |
| 2026-04-30 20:26 | -32.13752 | -66.91643 | 35764 ft | 461 kts | 257° |
| 2026-04-30 20:26 | -32.16159 | -67.02566 | 35744 ft | 460 kts | 259° |
| 2026-04-30 20:27 | -32.19339 | -67.17191 | 35744 ft | 460 kts | 258° |
| 2026-04-30 20:28 | -32.22589 | -67.31829 | 35735 ft | 460 kts | 258° |
| 2026-04-30 20:30 | -32.26618 | -67.50107 | 35735 ft | 459 kts | 258° |
| 2026-04-30 20:31 | -32.31406 | -67.72018 | 35727 ft | 459 kts | 259° |
| 2026-04-30 20:32 | -32.35363 | -67.90277 | 35729 ft | 458 kts | 259° |
| 2026-04-30 20:33 | -32.37723 | -68.01231 | 35731 ft | 458 kts | 259° |
| 2026-04-30 20:34 | -32.40074 | -68.12193 | 35730 ft | 458 kts | 259° |
| 2026-04-30 20:35 | -32.42406 | -68.23118 | 35730 ft | 459 kts | 259° |
| 2026-04-30 20:35 | -32.44746 | -68.34125 | 35736 ft | 460 kts | 259° |
| 2026-04-30 20:36 | -32.46304 | -68.41489 | 35736 ft | 461 kts | 259° |
| 2026-04-30 20:37 | -32.48631 | -68.52546 | 35740 ft | 462 kts | 259° |
| 2026-04-30 20:37 | -32.50181 | -68.59942 | 35749 ft | 463 kts | 259° |
| 2026-04-30 20:38 | -32.51730 | -68.67353 | 35752 ft | 464 kts | 259° |
| 2026-04-30 20:38 | -32.53277 | -68.74774 | 35773 ft | 464 kts | 259° |
| 2026-04-30 20:39 | -32.55590 | -68.85914 | 35765 ft | 464 kts | 259° |
| 2026-04-30 20:40 | -32.57892 | -68.97065 | 35771 ft | 465 kts | 259° |
| 2026-04-30 20:40 | -32.59423 | -69.04512 | 35775 ft | 465 kts | 259° |
| 2026-04-30 20:41 | -32.61693 | -69.15586 | 35685 ft | 456 kts | 259° |
| 2026-04-30 20:41 | -32.63176 | -69.22835 | 35462 ft | 449 kts | 259° |
| 2026-04-30 20:42 | -32.63909 | -69.26434 | 35243 ft | 449 kts | 259° |
| 2026-04-30 20:42 | -32.64641 | -69.30041 | 34898 ft | 451 kts | 259° |
| 2026-04-30 20:42 | -32.66109 | -69.37295 | 33833 ft | 459 kts | 259° |
| 2026-04-30 20:43 | -32.66852 | -69.40975 | 33028 ft | 460 kts | 259° |
| 2026-04-30 20:43 | -32.67597 | -69.44659 | 32382 ft | 456 kts | 259° |
| 2026-04-30 20:43 | -32.68331 | -69.48289 | 31754 ft | 452 kts | 259° |
| 2026-04-30 20:44 | -32.69783 | -69.55493 | 30643 ft | 444 kts | 261° |
| 2026-04-30 20:44 | -32.70494 | -69.59033 | 30063 ft | 438 kts | 260° |
| 2026-04-30 20:44 | -32.71887 | -69.65996 | 28830 ft | 428 kts | 261° |
| 2026-04-30 20:45 | -32.73246 | -69.72793 | 27799 ft | 417 kts | 260° |
| 2026-04-30 20:45 | -32.73914 | -69.76139 | 27199 ft | 414 kts | 260° |
| 2026-04-30 20:45 | -32.74573 | -69.79444 | 26709 ft | 409 kts | 260° |
| 2026-04-30 20:46 | -32.76494 | -69.89176 | 25194 ft | 398 kts | 259° |
| 2026-04-30 20:46 | -32.77126 | -69.92365 | 24686 ft | 396 kts | 259° |
| 2026-04-30 20:47 | -32.78375 | -69.98684 | 23699 ft | 389 kts | 259° |
| 2026-04-30 20:47 | -32.78990 | -70.01806 | 23110 ft | 386 kts | 259° |
| 2026-04-30 20:48 | -32.80191 | -70.07924 | 22115 ft | 380 kts | 259° |
| 2026-04-30 20:48 | -32.80790 | -70.10972 | 21627 ft | 376 kts | 259° |
| 2026-04-30 20:48 | -32.81379 | -70.13986 | 21150 ft | 374 kts | 258° |
| 2026-04-30 20:48 | -32.81970 | -70.16987 | 20705 ft | 370 kts | 259° |
| 2026-04-30 20:49 | -32.82549 | -70.19953 | 20201 ft | 367 kts | 259° |
| 2026-04-30 20:49 | -32.83121 | -70.22897 | 19727 ft | 365 kts | 259° |
| 2026-04-30 20:49 | -32.83691 | -70.25829 | 19284 ft | 363 kts | 260° |
| 2026-04-30 20:50 | -32.84824 | -70.31652 | 18397 ft | 362 kts | 261° |
| 2026-04-30 20:50 | -32.85206 | -70.34566 | 18085 ft | 351 kts | 273° |
| 2026-04-30 20:50 | -32.84950 | -70.37420 | 18031 ft | 350 kts | 280° |
| 2026-04-30 20:50 | -32.84622 | -70.40337 | 18031 ft | 359 kts | 279° |
| 2026-04-30 20:51 | -32.84327 | -70.43291 | 18001 ft | 360 kts | 278° |
| 2026-04-30 20:51 | -32.83776 | -70.49182 | 17988 ft | 356 kts | 278° |
| 2026-04-30 20:51 | -32.83501 | -70.52110 | 17980 ft | 356 kts | 278° |
| 2026-04-30 20:52 | -32.83226 | -70.55030 | 17974 ft | 357 kts | 278° |
| 2026-04-30 20:52 | -32.82946 | -70.57975 | 17978 ft | 357 kts | 278° |
| 2026-04-30 20:52 | -32.82414 | -70.63603 | 17949 ft | 327 kts | 279° |
| 2026-04-30 20:53 | -32.82166 | -70.66229 | 17944 ft | 311 kts | 278° |
| 2026-04-30 20:53 | -32.82267 | -70.68720 | 17398 ft | 301 kts | 258° |
| 2026-04-30 20:53 | -32.83098 | -70.71021 | 16463 ft | 306 kts | 243° |
| 2026-04-30 20:54 | -32.86040 | -70.74765 | 14793 ft | 310 kts | 227° |
| 2026-04-30 20:54 | -32.87628 | -70.76440 | 14142 ft | 302 kts | 227° |
| 2026-04-30 20:54 | -32.89171 | -70.78099 | 13447 ft | 296 kts | 228° |
| 2026-04-30 20:55 | -32.92545 | -70.80965 | 11446 ft | 313 kts | 195° |
| 2026-04-30 20:55 | -32.94737 | -70.81064 | 10522 ft | 318 kts | 177° |
| 2026-04-30 20:55 | -32.96960 | -70.80873 | 9532 ft | 322 kts | 178° |
| 2026-04-30 20:56 | -33.01446 | -70.80609 | 7640 ft | 317 kts | 178° |
| 2026-04-30 20:56 | -33.03632 | -70.80492 | 7300 ft | 310 kts | 178° |
| 2026-04-30 20:56 | -33.07776 | -70.80274 | 7064 ft | 285 kts | 178° |
| 2026-04-30 20:57 | -33.09728 | -70.80169 | 6821 ft | 279 kts | 178° |
| 2026-04-30 20:57 | -33.11655 | -70.80067 | 6501 ft | 276 kts | 177° |
| 2026-04-30 20:57 | -33.13531 | -70.79966 | 6127 ft | 262 kts | 177° |
| 2026-04-30 20:58 | -33.16945 | -70.79781 | 5561 ft | 235 kts | 178° |
| 2026-04-30 20:58 | -33.18544 | -70.79696 | 5229 ft | 232 kts | 178° |
| 2026-04-30 20:58 | -33.20140 | -70.79611 | 4923 ft | 227 kts | 178° |
| 2026-04-30 20:58 | -33.21705 | -70.79527 | 4620 ft | 223 kts | 177° |
| 2026-04-30 20:59 | -33.24625 | -70.79369 | 4073 ft | 192 kts | 178° |
| 2026-04-30 20:59 | -33.25912 | -70.79300 | 3832 ft | 179 kts | 178° |
| 2026-04-30 21:00 | -33.28424 | -70.79165 | 3368 ft | 177 kts | 179° |
| 2026-04-30 21:00 | -33.30778 | -70.79038 | 2906 ft | 158 kts | 179° |
| 2026-04-30 21:01 | -33.32828 | -70.78928 | 2520 ft | 145 kts | 181° |
| 2026-04-30 21:01 | -33.33828 | -70.78862 | 2395 ft | 144 kts | 182° |
| 2026-04-30 21:01 | -33.35839 | -70.78768 | 1935 ft | 145 kts | 182° |
| 2026-04-30 21:02 | -33.36829 | -70.78712 | 1744 ft | 141 kts | 180° |
| 2026-04-30 21:02 | -33.37798 | -70.78662 | 1628 ft | 138 kts | 181° |
| 2026-04-30 21:02 | -33.38749 | -70.78608 | 1573 ft | 130 kts | 181° |
| 2026-04-30 21:02 | -33.39569 | -70.78574 | 1572 ft | 105 kts | 177° |
| 2026-04-30 21:03 | -33.40155 | -70.78535 | 1576 ft | 61 kts | 177° |
| 2026-04-30 21:03 | -33.40376 | -70.78527 | 1576 ft | 28 kts | 179° |
| 2026-04-30 21:03 | -33.40434 | -70.78527 | 1576 ft | 5 kts | 184° |
| 2026-04-30 21:03 | -33.40468 | -70.78548 | 1576 ft | 6 kts | 224° |
| 2026-04-30 21:04 | -33.40482 | -70.78594 | 1574 ft | 6 kts | 261° |
| 2026-04-30 21:04 | -33.40471 | -70.78645 | 1576 ft | 7 kts | 297° |
| 2026-04-30 21:04 | -33.40405 | -70.78727 | 1575 ft | 7 kts | 319° |
| 2026-04-30 21:05 | -33.40386 | -70.78779 | 1575 ft | 7 kts | 271° |
| 2026-04-30 21:05 | -33.40398 | -70.78834 | 1575 ft | 7 kts | 228° |
| 2026-04-30 21:05 | -33.40446 | -70.78844 | 1575 ft | 7 kts | 174° |
| 2026-04-30 21:05 | -33.40494 | -70.78861 | 1576 ft | 8 kts | 230° |
| 2026-04-30 21:06 | -33.40501 | -70.78909 | 1576 ft | 1 kts | 266° |
| 2026-04-30 21:06 | -33.40502 | -70.78915 | 1576 ft | 0 kts | 266° |
| 2026-04-30 21:06 | -33.40502 | -70.78919 | 1576 ft | 1 kts | 265° |
| 2026-04-30 21:06 | -33.40502 | -70.78923 | 1576 ft | 0 kts | 265° |